Time;durP1;ratioP1;P1;durP2;ratioP2;P2;SDS_P1;SDS_P2;PMS_P1;PMS_P2;Temp;Humidity;BMP_temperature;BMP_pressure;BME280_temperature;BME280_humidity;BME280_pressure;Samples;Min_cycle;Max_cycle;Signal;HPM_P1;HPM_P2
2023/03/04 00:01:39;;;;;;;54.90;24.50;;;;;;;-0.81;88.94;101164.00;107364;1247;60456;-87
2023/03/04 00:04:08;;;;;;;54.90;24.90;;;;;;;-0.86;88.89;101161.02;107426;1244;59091;-84
2023/03/04 00:06:37;;;;;;;52.30;25.40;;;;;;;-0.89;91.21;101158.16;107351;1243;72339;-81
2023/03/04 00:09:06;;;;;;;60.40;26.00;;;;;;;-0.90;91.70;101154.27;107316;1245;71065;-82
2023/03/04 00:11:35;;;;;;;54.30;25.10;;;;;;;-0.93;91.41;101155.34;107264;1247;67865;-83
2023/03/04 00:14:04;;;;;;;51.50;23.30;;;;;;;-0.97;91.71;101149.94;107105;1248;71873;-84
2023/03/04 00:16:33;;;;;;;57.00;24.30;;;;;;;-1.01;91.50;101148.30;107096;1254;61548;-81
2023/03/04 00:19:02;;;;;;;52.70;23.20;;;;;;;-1.01;91.86;101149.15;107161;1244;60411;-84
2023/03/04 00:21:32;;;;;;;60.50;23.30;;;;;;;-1.08;91.59;101147.90;107154;1248;71782;-85
2023/03/04 00:24:01;;;;;;;48.90;21.90;;;;;;;-1.14;91.49;101146.47;107068;1255;72670;-83
2023/03/04 00:26:30;;;;;;;49.70;22.70;;;;;;;-1.21;92.13;101145.55;107120;1245;69165;-84
2023/03/04 00:28:59;;;;;;;52.20;23.90;;;;;;;-1.27;91.70;101137.11;107100;1256;71888;-83
2023/03/04 00:31:28;;;;;;;50.80;23.20;;;;;;;-1.34;92.19;101135.87;107005;1244;60012;-81
2023/03/04 00:33:57;;;;;;;50.50;21.40;;;;;;;-1.38;92.69;101128.23;106949;1243;61676;-81
2023/03/04 00:36:26;;;;;;;52.40;22.90;;;;;;;-1.41;93.13;101130.01;107035;1251;73137;-81
2023/03/04 00:38:55;;;;;;;54.00;23.80;;;;;;;-1.44;93.03;101127.66;106997;1247;69844;-82
2023/03/04 00:41:24;;;;;;;51.30;22.70;;;;;;;-1.48;92.95;101127.20;107084;1245;68263;-82
2023/03/04 00:43:53;;;;;;;49.80;21.50;;;;;;;-1.52;92.58;101126.09;106912;1248;71127;-86
2023/03/04 00:46:22;;;;;;;54.00;23.50;;;;;;;-1.57;92.85;101122.23;107033;1244;61136;-86
2023/03/04 00:48:52;;;;;;;51.60;21.40;;;;;;;-1.59;93.50;101119.00;107080;1244;59539;-86
2023/03/04 00:51:21;;;;;;;47.10;21.60;;;;;;;-1.61;93.38;101114.27;107259;1246;72695;-85
2023/03/04 00:53:51;;;;;;;51.70;22.80;;;;;;;-1.65;93.34;101113.46;107385;1245;71686;-86
2023/03/04 00:56:19;;;;;;;50.60;21.60;;;;;;;-1.70;93.35;101110.83;107297;1250;70272;-82
2023/03/04 00:58:48;;;;;;;52.00;22.20;;;;;;;-1.75;93.64;101108.68;108262;1243;72513;-81
2023/03/04 01:01:17;;;;;;;54.70;22.00;;;;;;;-1.78;93.86;101104.96;109243;1243;59637;-82
2023/03/04 01:03:46;;;;;;;51.50;21.60;;;;;;;-1.81;94.21;101102.96;109165;1246;58905;-81
2023/03/04 01:06:15;;;;;;;49.50;21.40;;;;;;;-1.86;93.91;101096.88;108302;1247;71075;-83
2023/03/04 01:08:45;;;;;;;49.90;21.70;;;;;;;-1.88;93.88;101094.19;107457;1245;71159;-83
2023/03/04 01:11:14;;;;;;;46.80;21.70;;;;;;;-1.91;94.20;101094.92;107308;1244;67855;-83
2023/03/04 01:13:43;;;;;;;46.80;20.90;;;;;;;-1.94;94.40;101092.40;108126;1248;73248;-83
2023/03/04 01:16:12;;;;;;;51.40;21.70;;;;;;;-1.94;94.99;101091.36;107337;1247;61729;-83
2023/03/04 01:18:41;;;;;;;48.90;21.40;;;;;;;-1.97;94.37;101089.71;107301;1250;60899;-82
2023/03/04 01:21:10;;;;;;;52.20;22.40;;;;;;;-2.01;93.88;101089.25;107338;1245;73237;-81
2023/03/04 01:23:38;;;;;;;52.40;23.80;;;;;;;-2.04;93.87;101086.05;107770;1243;72985;-86
2023/03/04 01:26:09;;;;;;;48.30;21.70;;;;;;;-2.08;94.44;101087.82;107567;1253;68241;-87
2023/03/04 01:28:38;;;;;;;50.90;22.50;;;;;;;-2.11;95.08;101078.80;107425;1247;72886;-87
2023/03/04 01:31:07;;;;;;;52.10;23.80;;;;;;;-2.12;95.49;101077.64;107354;1248;59687;-84
2023/03/04 01:33:36;;;;;;;51.00;23.50;;;;;;;-2.15;95.54;101077.35;107328;1244;59097;-84
2023/03/04 01:36:05;;;;;;;64.10;30.70;;;;;;;-2.17;95.76;101074.79;107387;1245;72718;-86
2023/03/04 01:38:34;;;;;;;58.70;29.70;;;;;;;-2.20;95.14;101070.23;107329;1247;70196;-87
2023/03/04 01:41:04;;;;;;;48.70;20.40;;;;;;;-2.23;95.96;101063.98;107403;1245;68165;-81
2023/03/04 01:43:47;;;;;;;48.50;21.40;;;;;;;-2.28;95.24;101062.67;107278;1247;73230;-83
2023/03/04 01:46:16;;;;;;;49.70;21.50;;;;;;;-2.33;95.41;101058.30;107333;1243;60311;-83
2023/03/04 01:48:45;;;;;;;50.50;21.20;;;;;;;-2.35;95.55;101059.36;107334;1256;60186;-83
2023/03/04 01:51:17;;;;;;;52.20;21.10;;;;;;;-2.38;95.75;101054.79;107346;1248;70823;-82
2023/03/04 01:53:53;;;;;;;50.60;23.30;;;;;;;-2.40;95.92;101055.33;107262;1251;71677;-86
2023/03/04 01:56:35;;;;;;;52.90;24.00;;;;;;;-2.43;96.60;101052.13;107368;1248;69164;-81
2023/03/04 01:59:15;;;;;;;50.80;22.50;;;;;;;-2.42;97.90;101047.52;107218;1244;73853;-80
2023/03/04 02:01:50;;;;;;;56.00;24.20;;;;;;;-2.45;97.74;101049.92;107322;1256;61638;-81
2023/03/04 02:04:27;;;;;;;54.30;23.70;;;;;;;-2.48;97.50;101044.70;107441;1256;61559;-83
2023/03/04 02:06:58;;;;;;;45.90;23.50;;;;;;;-2.52;96.92;101042.54;107205;1256;71030;-81
2023/03/04 02:09:29;;;;;;;54.00;21.60;;;;;;;-2.56;96.80;101040.86;107067;1245;71796;-82
2023/03/04 02:11:59;;;;;;;54.30;21.90;;;;;;;-2.58;96.80;101036.48;107043;1254;69670;-79
2023/03/04 02:14:28;;;;;;;47.90;20.20;;;;;;;-2.62;96.55;101029.02;107165;1248;73125;-81
2023/03/04 02:16:58;;;;;;;53.10;21.10;;;;;;;-2.63;96.79;101026.14;107210;1247;59471;-80
2023/03/04 02:19:46;;;;;;;45.60;21.10;;;;;;;-2.64;96.90;101025.64;107296;1248;60431;-80
2023/03/04 02:22:15;;;;;;;46.60;21.20;;;;;;;-2.66;96.92;101026.86;107315;1251;72747;-81
2023/03/04 02:24:58;;;;;;;44.30;19.50;;;;;;;-2.68;96.84;101024.81;107241;1248;73462;-83
2023/03/04 02:27:27;;;;;;;41.60;19.10;;;;;;;-2.69;97.21;101021.95;107355;1244;70802;-83
2023/03/04 02:29:57;;;;;;;50.20;20.70;;;;;;;-2.70;96.90;101020.94;107326;1247;73535;-82
2023/03/04 02:32:27;;;;;;;44.20;20.10;;;;;;;-2.71;96.86;101019.23;107753;1245;60317;-79
2023/03/04 02:34:56;;;;;;;45.70;20.00;;;;;;;-2.70;96.68;101017.20;107753;1247;59480;-80
2023/03/04 02:37:25;;;;;;;46.10;20.00;;;;;;;-2.71;96.42;101019.25;108094;1248;71582;-79
2023/03/04 02:39:54;;;;;;;45.00;18.50;;;;;;;-2.71;96.37;101016.20;108134;1247;70302;-79
2023/03/04 02:42:23;;;;;;;44.00;19.80;;;;;;;-2.70;96.67;101010.54;108243;1245;67827;-79
2023/03/04 02:45:00;;;;;;;53.20;20.90;;;;;;;-2.70;96.65;101007.64;108804;1248;72008;-82
2023/03/04 02:47:29;;;;;;;46.80;19.50;;;;;;;-2.70;96.66;100999.98;108248;1245;60195;-83
2023/03/04 02:49:58;;;;;;;49.10;21.80;;;;;;;-2.69;96.96;100995.52;107459;1244;59680;-84
2023/03/04 02:52:27;;;;;;;50.40;19.70;;;;;;;-2.69;96.91;100991.08;107327;1244;71614;-86
2023/03/04 02:54:57;;;;;;;48.50;19.90;;;;;;;-2.69;96.93;100986.65;107212;1244;71660;-87
2023/03/04 02:57:26;;;;;;;45.80;21.10;;;;;;;-2.69;97.08;100984.93;109425;1243;72080;-83
2023/03/04 02:59:55;;;;;;;49.10;21.50;;;;;;;-2.68;96.99;100979.98;109590;1244;73934;-83
2023/03/04 03:02:26;;;;;;;44.50;20.60;;;;;;;-2.69;96.78;100970.27;109447;1246;60982;-83
2023/03/04 03:04:55;;;;;;;42.70;19.70;;;;;;;-2.69;96.34;100973.02;109466;1245;59368;-85
2023/03/04 03:07:26;;;;;;;43.90;19.10;;;;;;;-2.71;96.23;100965.70;109475;1243;71596;-86
2023/03/04 03:09:55;;;;;;;45.00;20.10;;;;;;;-2.71;96.40;100964.35;109580;1244;70261;-85
2023/03/04 03:12:24;;;;;;;48.80;21.80;;;;;;;-2.70;96.53;100968.60;109277;1250;68193;-82
2023/03/04 03:14:53;;;;;;;47.30;20.60;;;;;;;-2.70;96.37;100963.14;109569;1243;73378;-80
2023/03/04 03:17:23;;;;;;;71.20;26.60;;;;;;;-2.71;96.37;100954.12;109495;1245;60206;-80
2023/03/04 03:19:52;;;;;;;57.50;24.80;;;;;;;-2.70;96.63;100951.72;109427;1243;60195;-81
2023/03/04 03:22:21;;;;;;;64.00;28.70;;;;;;;-2.69;96.56;100951.36;109507;1243;73021;-81
2023/03/04 03:24:50;;;;;;;64.40;28.10;;;;;;;-2.68;96.66;100950.33;109569;1244;70217;-80
2023/03/04 03:27:19;;;;;;;50.70;21.70;;;;;;;-2.68;96.67;100944.84;109436;1244;68579;-80
2023/03/04 03:29:48;;;;;;;52.40;21.00;;;;;;;-2.69;96.51;100940.61;109443;1243;71867;-85
2023/03/04 03:32:17;;;;;;;53.20;22.30;;;;;;;-2.69;96.28;100936.52;109465;1245;60421;-83
2023/03/04 03:34:46;;;;;;;50.90;22.20;;;;;;;-2.70;96.37;100932.78;110189;1237;61779;-85
2023/03/04 03:37:15;;;;;;;57.00;24.40;;;;;;;-2.70;95.93;100927.67;109941;1237;73141;-84
2023/03/04 03:39:44;;;;;;;50.70;21.30;;;;;;;-2.72;97.14;100925.31;109861;1237;72622;-84
2023/03/04 03:42:12;;;;;;;55.20;23.30;;;;;;;-2.73;97.48;100925.16;109866;1237;70110;-86
2023/03/04 03:44:41;;;;;;;49.50;20.70;;;;;;;-2.75;97.11;100920.93;109834;1237;71610;-85
2023/03/04 03:47:10;;;;;;;49.40;21.10;;;;;;;-2.79;96.28;100922.36;109908;1239;60350;-85
2023/03/04 03:49:39;;;;;;;43.60;20.40;;;;;;;-2.86;96.55;100921.08;109967;1237;59847;-85
2023/03/04 03:52:08;;;;;;;46.80;19.50;;;;;;;-2.88;96.29;100922.64;109941;1238;74086;-85
2023/03/04 03:54:37;;;;;;;51.20;19.70;;;;;;;-2.93;97.07;100922.73;110033;1237;72515;-85
2023/03/04 03:57:05;;;;;;;43.20;19.30;;;;;;;-2.96;96.92;100927.00;110251;1237;69587;-85
2023/03/04 03:59:34;;;;;;;43.50;19.20;;;;;;;-2.98;96.08;100928.91;110210;1238;71572;-85
2023/03/04 04:02:03;;;;;;;44.50;18.90;;;;;;;-3.03;95.30;100930.01;110248;1239;59514;-85
2023/03/04 04:04:32;;;;;;;49.20;18.50;;;;;;;-3.10;96.27;100927.70;110157;1238;58878;-85
2023/03/04 04:07:01;;;;;;;48.40;20.40;;;;;;;-3.11;97.31;100921.59;109880;1240;70793;-85
2023/03/04 04:09:30;;;;;;;48.70;20.30;;;;;;;-3.11;98.03;100917.67;109794;1239;70811;-86
2023/03/04 04:11:59;;;;;;;47.00;19.30;;;;;;;-3.14;97.46;100921.80;109912;1238;70857;-86
2023/03/04 04:14:27;;;;;;;45.40;19.40;;;;;;;-3.19;96.95;100915.39;109864;1238;73306;-84
2023/03/04 04:16:56;;;;;;;52.90;20.80;;;;;;;-3.23;97.18;100916.11;109806;1241;61469;-82
2023/03/04 04:19:25;;;;;;;49.40;21.00;;;;;;;-3.23;96.91;100918.84;109714;1244;60174;-84
2023/03/04 04:21:54;;;;;;;50.60;22.60;;;;;;;-3.25;97.23;100916.64;109839;1241;71601;-80
2023/03/04 04:24:23;;;;;;;50.70;22.10;;;;;;;-3.24;97.84;100913.22;109737;1238;69482;-86
2023/03/04 04:26:52;;;;;;;48.80;22.70;;;;;;;-3.25;97.94;100908.13;109894;1241;67800;-84
2023/03/04 04:29:22;;;;;;;47.30;22.00;;;;;;;-3.27;97.86;100911.73;109813;1241;73395;-84
2023/03/04 04:31:51;;;;;;;52.60;23.70;;;;;;;-3.28;97.78;100908.68;109886;1241;62618;-84
2023/03/04 04:34:19;;;;;;;55.50;24.10;;;;;;;-3.28;97.88;100908.86;109801;1238;61088;-83
2023/03/04 04:36:48;;;;;;;52.70;23.70;;;;;;;-3.31;97.91;100902.40;109864;1238;74066;-81
2023/03/04 04:39:18;;;;;;;56.00;26.20;;;;;;;-3.32;97.94;100905.33;109848;1241;70017;-76
2023/03/04 04:41:47;;;;;;;105.50;42.40;;;;;;;-3.32;98.24;100900.73;109734;1238;71168;-81
2023/03/04 04:44:16;;;;;;;113.30;39.50;;;;;;;-3.33;98.70;100900.91;109700;1238;71761;-83
2023/03/04 04:46:45;;;;;;;90.40;31.50;;;;;;;-3.32;98.21;100902.95;109971;1241;60868;-82
2023/03/04 04:49:15;;;;;;;75.30;25.70;;;;;;;-3.33;98.30;100901.60;109929;1238;61892;-81
2023/03/04 04:51:44;;;;;;;71.90;27.40;;;;;;;-3.34;98.09;100904.33;109847;1238;73179;-81
2023/03/04 04:54:14;;;;;;;66.00;24.20;;;;;;;-3.35;97.73;100903.15;109846;1238;71825;-81
2023/03/04 04:56:43;;;;;;;70.30;25.90;;;;;;;-3.36;97.98;100904.16;109717;1238;70535;-77
2023/03/04 04:59:12;;;;;;;62.20;24.00;;;;;;;-3.34;97.61;100909.10;109992;1238;74257;-78
2023/03/04 05:01:40;;;;;;;53.40;22.90;;;;;;;-3.34;98.12;100908.26;109983;1239;60580;-76
2023/03/04 05:04:10;;;;;;;54.90;23.90;;;;;;;-3.35;97.95;100907.73;109916;1238;61829;-77
2023/03/04 05:06:40;;;;;;;47.90;20.70;;;;;;;-3.35;97.56;100907.23;109844;1243;72603;-80
2023/03/04 05:09:08;;;;;;;58.70;24.80;;;;;;;-3.37;97.55;100907.24;109956;1238;72165;-80
2023/03/04 05:11:37;;;;;;;54.30;22.90;;;;;;;-3.39;97.90;100907.11;110059;1238;68006;-78
2023/03/04 05:14:06;;;;;;;52.40;22.80;;;;;;;-3.39;97.93;100911.20;109944;1241;71102;-77
2023/03/04 05:16:35;;;;;;;54.40;23.50;;;;;;;-3.37;98.34;100913.72;109828;1243;59503;-76
2023/03/04 05:19:04;;;;;;;50.40;22.70;;;;;;;-3.36;98.84;100914.23;110021;1238;60317;-78
2023/03/04 05:21:32;;;;;;;48.80;22.60;;;;;;;-3.32;98.76;100909.93;110004;1238;73942;-84
2023/03/04 05:24:01;;;;;;;50.00;20.40;;;;;;;-3.27;98.95;100910.04;110012;1238;73368;-88
2023/03/04 05:26:30;;;;;;;52.50;21.40;;;;;;;-3.22;98.54;100906.91;110041;1238;70287;-86
2023/03/04 05:28:59;;;;;;;48.70;22.10;;;;;;;-3.18;98.37;100905.33;109963;1238;71851;-87
2023/03/04 05:31:28;;;;;;;52.20;22.20;;;;;;;-3.11;98.21;100908.30;109847;1244;59682;-85
2023/03/04 05:33:57;;;;;;;50.90;20.60;;;;;;;-3.01;98.07;100908.50;110018;1241;62142;-82
2023/03/04 05:36:27;;;;;;;53.20;22.00;;;;;;;-2.90;98.01;100908.17;109918;1238;73371;-86
2023/03/04 05:38:55;;;;;;;48.90;20.20;;;;;;;-2.78;97.66;100911.08;110021;1238;72909;-84
2023/03/04 05:41:24;;;;;;;46.30;20.80;;;;;;;-2.67;97.39;100908.21;110084;1241;69095;-86
2023/03/04 05:43:55;;;;;;;51.40;20.20;;;;;;;-2.55;97.32;100907.34;110152;1242;72473;-88
2023/03/04 05:46:24;;;;;;;47.40;19.90;;;;;;;-2.42;97.36;100907.14;109908;1242;61761;-86
2023/03/04 05:48:53;;;;;;;41.90;20.60;;;;;;;-2.27;96.79;100908.77;109950;1244;60032;-84
2023/03/04 05:51:24;;;;;;;50.10;22.80;;;;;;;-2.14;96.52;100908.55;109875;1240;72736;-84
2023/03/04 05:53:52;;;;;;;49.10;21.90;;;;;;;-2.02;96.01;100906.80;109978;1240;71499;-84
2023/03/04 05:56:21;;;;;;;44.10;20.10;;;;;;;-1.90;95.75;100909.49;109851;1244;68116;-83
2023/03/04 05:58:50;;;;;;;55.50;23.10;;;;;;;-1.77;95.40;100905.86;109787;1244;71528;-80
2023/03/04 06:01:19;;;;;;;53.60;22.10;;;;;;;-1.63;95.42;100901.32;109816;1242;60497;-79
2023/03/04 06:03:48;;;;;;;55.40;23.40;;;;;;;-1.49;94.94;100891.98;109865;1240;60758;-78
2023/03/04 06:06:17;;;;;;;59.50;23.70;;;;;;;-1.31;94.82;100894.54;109929;1240;72957;-84
2023/03/04 06:08:46;;;;;;;50.50;20.00;;;;;;;-1.11;94.67;100894.30;109876;1241;71768;-82
2023/03/04 06:11:15;;;;;;;48.20;21.50;;;;;;;-0.93;93.61;100886.89;109980;1240;69527;-85
2023/03/04 06:13:44;;;;;;;55.70;23.30;;;;;;;-0.73;93.14;100884.55;109769;1240;72839;-88
2023/03/04 06:16:13;;;;;;;50.70;22.70;;;;;;;-0.54;92.73;100884.12;109822;1244;60255;-84
2023/03/04 06:18:42;;;;;;;51.30;23.60;;;;;;;-0.37;91.19;100883.70;109975;1240;61145;-87
2023/03/04 06:21:11;;;;;;;52.30;24.20;;;;;;;-0.23;88.36;100877.38;109877;1240;74107;-89
2023/03/04 06:23:40;;;;;;;60.30;25.30;;;;;;;-0.09;87.55;100874.80;109839;1240;72553;-88
2023/03/04 06:26:14;;;;;;;51.50;22.40;;;;;;;0.02;86.74;100871.76;109829;1245;69365;-84
2023/03/04 08:28:28;;;;;;;39.50;20.00;;;;;;;5.73;67.42;100751.73;104658;1286;599745;-83
2023/03/04 08:30:57;;;;;;;32.60;16.60;;;;;;;5.82;66.59;100749.66;107166;1250;60067;-81
2023/03/04 08:33:26;;;;;;;32.80;15.80;;;;;;;5.96;65.35;100749.83;106977;1251;61523;-82
2023/03/04 08:35:59;;;;;;;35.00;16.80;;;;;;;6.08;64.35;100739.67;106932;1249;71454;-84
2023/03/04 08:38:28;;;;;;;29.60;14.60;;;;;;;6.21;63.71;100734.16;106882;1250;61902;-79
2023/03/04 08:40:57;;;;;;;39.70;19.70;;;;;;;6.34;63.01;100733.62;106533;1249;354370;-79
2023/03/04 08:43:26;;;;;;;31.50;15.40;;;;;;;6.48;62.52;100730.11;106984;1249;74197;-81
2023/03/04 08:45:55;;;;;;;35.20;19.10;;;;;;;6.64;62.57;100724.40;106988;1252;59786;-80
2023/03/04 08:48:24;;;;;;;36.60;18.90;;;;;;;6.76;62.94;100718.85;107129;1248;59168;-82
2023/03/04 08:50:53;;;;;;;37.20;18.90;;;;;;;6.96;62.28;100713.60;107099;1249;61524;-81
2023/03/04 08:53:23;;;;;;;36.20;18.60;;;;;;;7.16;62.39;100713.81;106913;1251;60887;-82
2023/03/04 08:55:52;;;;;;;37.30;18.80;;;;;;;7.30;61.31;100709.71;106979;1247;70900;-82
2023/03/04 08:58:21;;;;;;;35.60;19.10;;;;;;;7.37;59.08;100705.29;107016;1260;64002;-81
2023/03/04 09:00:50;;;;;;;32.60;19.00;;;;;;;7.45;58.67;100698.78;107037;1248;59458;-82
2023/03/04 09:03:20;;;;;;;35.60;18.50;;;;;;;7.57;59.03;100697.49;106880;1247;58960;-82
2023/03/04 09:05:49;;;;;;;30.90;14.90;;;;;;;7.69;59.43;100694.38;106945;1247;62117;-80
2023/03/04 09:08:18;;;;;;;37.80;18.00;;;;;;;7.84;57.61;100686.67;106882;1260;61517;-83
2023/03/04 09:10:53;;;;;;;30.60;17.20;;;;;;;7.94;57.24;100682.92;106856;1250;59196;-82
2023/03/04 09:13:24;;;;;;;31.20;17.50;;;;;;;8.14;56.26;100676.67;106885;1248;72062;-82
2023/03/04 09:15:54;;;;;;;27.70;15.00;;;;;;;8.36;55.24;100677.73;106932;1257;60628;-80
2023/03/04 09:18:25;;;;;;;31.90;16.80;;;;;;;8.41;54.92;100675.16;106866;1248;58624;-82
2023/03/04 09:20:55;;;;;;;31.40;15.30;;;;;;;8.56;54.89;100670.89;106957;1249;72232;-83
2023/03/04 09:23:24;;;;;;;27.70;15.90;;;;;;;8.59;53.45;100665.71;106939;1252;62039;-81
2023/03/04 09:25:53;;;;;;;31.90;17.70;;;;;;;8.67;53.29;100658.05;107001;1247;69302;-81
2023/03/04 09:28:22;;;;;;;29.30;15.90;;;;;;;8.84;53.32;100649.28;106921;1251;74113;-81
2023/03/04 09:30:50;;;;;;;35.20;17.50;;;;;;;8.78;51.92;100648.42;106909;1257;60595;-82
2023/03/04 09:33:20;;;;;;;31.30;17.60;;;;;;;8.82;52.34;100646.34;106859;1247;60769;-81
2023/03/04 09:35:48;;;;;;;32.20;16.80;;;;;;;8.96;52.76;100639.66;106909;1249;62175;-82
2023/03/04 09:38:17;;;;;;;32.00;17.90;;;;;;;9.14;52.29;100633.55;106895;1248;61615;-82
2023/03/04 09:40:48;;;;;;;28.40;14.10;;;;;;;9.19;52.10;100629.38;106935;1260;60716;-81
2023/03/04 09:43:28;;;;;;;27.50;14.60;;;;;;;9.32;51.21;100626.13;107038;1247;73907;-81
2023/03/04 09:46:14;;;;;;;29.60;16.40;;;;;;;9.35;50.63;100620.30;107033;1251;57970;-82
2023/03/04 09:48:49;;;;;;;24.70;13.50;;;;;;;9.48;49.82;100613.16;107118;1260;61194;-80
2023/03/04 09:51:34;;;;;;;25.70;14.70;;;;;;;9.59;48.75;100611.40;107150;1249;61928;-82
2023/03/04 09:54:32;;;;;;;25.90;14.90;;;;;;;9.70;48.14;100609.70;107195;1248;71494;-81
2023/03/04 09:57:36;;;;;;;26.10;14.70;;;;;;;9.74;48.06;100599.53;107195;1251;59435;-83
2023/03/04 10:00:19;;;;;;;23.50;11.10;;;;;;;9.90;47.72;100594.56;107184;1252;62406;-84
2023/03/04 10:03:12;;;;;;;;;;;;;;;10.09;44.81;100591.09;107272;1257;60051;-84
2023/03/04 10:05:54;;;;;;;22.10;12.20;;;;;;;10.01;45.11;100582.44;107285;1248;57460;-84
2023/03/04 10:08:48;;;;;;;31.70;13.90;;;;;;;10.01;45.66;100570.67;107418;1257;71923;-78
2023/03/04 10:11:39;;;;;;;23.20;12.80;;;;;;;10.14;45.34;100567.08;107616;1257;61952;-79
2023/03/04 10:14:45;;;;;;;24.60;13.30;;;;;;;10.29;45.79;100558.35;107247;1244;70482;-81
2023/03/04 10:17:33;;;;;;;29.20;15.70;;;;;;;10.35;45.12;100544.66;107183;1248;74163;-81
2023/03/04 10:20:25;;;;;;;27.20;14.10;;;;;;;10.41;45.59;100540.22;107245;1248;58748;-82
2023/03/04 10:23:13;;;;;;;22.00;11.50;;;;;;;10.70;43.97;100540.12;107235;1247;60642;-80
2023/03/04 10:25:45;;;;;;;17.90;10.80;;;;;;;10.79;42.56;100537.74;107182;1249;61697;-83
2023/03/04 10:28:23;;;;;;;23.50;14.00;;;;;;;10.81;41.75;100532.67;107059;1251;61664;-81
2023/03/04 10:31:08;;;;;;;23.70;13.00;;;;;;;10.80;42.25;100525.11;107241;1249;69710;-85
2023/03/04 10:33:39;;;;;;;22.90;11.90;;;;;;;10.88;41.78;100517.50;107126;1248;63629;-81
2023/03/04 10:36:29;;;;;;;26.70;12.00;;;;;;;11.00;42.30;100517.50;107242;1248;59142;-81
2023/03/04 10:39:18;;;;;;;20.80;12.10;;;;;;;11.10;42.77;100509.39;107256;1244;58942;-81
2023/03/04 10:41:57;;;;;;;25.10;14.80;;;;;;;11.25;42.49;100502.61;107033;1257;62261;-81
2023/03/04 10:44:28;;;;;;;24.30;13.00;;;;;;;11.65;42.57;100495.77;107259;1248;72152;-80
2023/03/04 10:46:57;;;;;;;23.60;13.30;;;;;;;12.09;41.20;100491.56;107249;1248;60945;-83
2023/03/04 10:49:30;;;;;;;17.40;10.00;;;;;;;12.43;39.69;100486.65;107195;1248;73762;-80
2023/03/04 10:52:40;;;;;;;23.90;13.10;;;;;;;12.87;38.36;100487.09;107161;1246;57431;-82
2023/03/04 10:55:23;;;;;;;25.10;13.80;;;;;;;12.92;38.00;100480.41;107271;1255;61551;-80
2023/03/04 10:58:05;;;;;;;20.40;12.40;;;;;;;12.92;39.16;100473.60;107104;1254;72321;-78
2023/03/04 11:00:37;;;;;;;24.10;13.10;;;;;;;13.24;38.36;100471.55;107203;1247;72314;-82
2023/03/04 11:03:27;;;;;;;21.10;12.90;;;;;;;13.20;37.31;100467.44;107014;1252;60874;-82
2023/03/04 11:06:16;;;;;;;27.40;15.40;;;;;;;13.20;38.02;100463.44;107346;1248;73819;-78
2023/03/04 11:08:56;;;;;;;28.40;15.00;;;;;;;12.93;38.64;100459.99;107236;1248;60960;-80
2023/03/04 11:11:37;;;;;;;22.30;13.90;;;;;;;13.47;37.97;100453.19;107275;1250;61966;-82
2023/03/04 11:14:49;;;;;;;20.90;12.50;;;;;;;14.05;37.37;100445.39;107197;1248;62616;-82
2023/03/04 11:17:27;;;;;;;23.70;14.00;;;;;;;14.36;35.64;100434.35;107025;1257;70867;-81
2023/03/04 11:20:39;;;;;;;22.80;13.00;;;;;;;14.34;36.82;100426.59;107100;1256;59712;-83
2023/03/04 11:23:44;;;;;;;21.40;12.00;;;;;;;14.69;36.00;100423.17;106958;1257;63230;-80
2023/03/04 11:26:30;;;;;;;23.90;14.40;;;;;;;15.15;33.63;100410.89;107231;1249;60291;-79
2023/03/04 11:29:03;;;;;;;18.30;11.90;;;;;;;14.86;35.65;100406.48;109391;1244;61271;-78
2023/03/04 11:32:00;;;;;;;22.80;13.60;;;;;;;15.15;35.77;100404.96;109421;1245;61800;-78
2023/03/04 11:34:46;;;;;;;22.20;12.00;;;;;;;15.41;33.78;100393.16;109395;1244;71385;-81
2023/03/04 11:37:46;;;;;;;15.30;9.60;;;;;;;16.21;30.80;100391.63;109284;1244;70800;-77
2023/03/04 11:40:53;;;;;;;19.10;10.80;;;;;;;16.04;31.02;100383.52;109347;1244;64299;-81
2023/03/04 11:43:46;;;;;;;15.10;9.20;;;;;;;16.03;31.25;100379.94;109231;1244;57845;-74
2023/03/04 11:46:47;;;;;;;16.80;10.80;;;;;;;16.57;29.36;100371.48;109241;1248;57652;-80
2023/03/04 11:49:32;;;;;;;15.40;9.30;;;;;;;16.41;31.54;100366.09;109235;1244;73199;-78
2023/03/04 11:52:04;;;;;;;15.70;10.10;;;;;;;16.94;29.57;100361.85;109283;1244;61441;-75
2023/03/04 11:55:07;;;;;;;17.30;11.00;;;;;;;17.23;28.90;100353.91;109158;1247;70559;-78
2023/03/04 11:58:06;;;;;;;16.70;10.30;;;;;;;17.11;29.11;100349.21;109261;1244;74010;-77
2023/03/04 12:00:56;;;;;;;15.60;10.00;;;;;;;17.24;27.78;100345.89;109211;1248;57663;-77
2023/03/04 12:04:02;;;;;;;16.90;10.60;;;;;;;16.17;29.19;100341.75;109264;1244;57205;-80
2023/03/04 12:07:29;;;;;;;17.30;11.60;;;;;;;16.50;29.79;100336.15;109277;1244;62148;-78
2023/03/04 12:10:32;;;;;;;16.70;10.80;;;;;;;17.36;28.17;100327.70;109056;1247;72401;-80
2023/03/04 12:13:47;;;;;;;21.10;11.60;;;;;;;16.87;29.35;100328.96;109277;1247;61061;-82
2023/03/04 12:16:33;;;;;;;17.70;10.90;;;;;;;17.06;29.12;100322.12;109703;1243;73023;-83
2023/03/04 12:19:05;;;;;;;18.00;11.30;;;;;;;16.96;29.40;100318.60;109485;1244;57105;-85
2023/03/04 12:21:55;;;;;;;18.50;11.30;;;;;;;17.37;29.10;100319.15;109346;1248;57793;-82
2023/03/04 12:24:48;;;;;;;19.00;12.20;;;;;;;16.18;28.95;100314.69;109253;1245;72681;-82
2023/03/04 12:28:04;;;;;;;16.40;10.90;;;;;;;16.37;29.43;100312.36;109274;1245;71828;-77
2023/03/04 12:30:50;;;;;;;19.90;11.30;;;;;;;17.67;28.11;100310.13;109246;1244;71157;-80
2023/03/04 12:33:30;;;;;;;16.40;10.30;;;;;;;16.86;28.84;100304.30;109323;1246;73802;-84
2023/03/04 12:36:43;;;;;;;12.30;9.20;;;;;;;17.98;26.65;100296.45;109322;1243;57686;-81
2023/03/04 12:39:49;;;;;;;12.70;8.70;;;;;;;17.77;27.83;100285.95;109212;1244;61024;-84
2023/03/04 12:42:31;;;;;;;13.50;7.40;;;;;;;18.17;25.82;100290.84;109279;1245;61854;-83
2023/03/04 12:45:24;;;;;;;10.50;6.40;;;;;;;18.72;23.66;100288.78;109198;1244;72221;-82
2023/03/04 12:48:18;;;;;;;15.90;8.30;;;;;;;18.73;22.90;100281.88;109275;1244;59715;-81
2023/03/04 12:51:02;;;;;;;;;;;;;;;18.13;24.18;100274.42;109169;1244;74467;-77
2023/03/04 12:54:13;;;;;;;10.90;6.80;;;;;;;18.64;23.08;100274.57;109175;1245;57681;-84
2023/03/04 12:56:57;;;;;;;12.90;7.70;;;;;;;18.84;21.96;100273.71;109091;1244;61071;-77
2023/03/04 12:59:33;;;;;;;11.80;6.40;;;;;;;18.66;21.30;100267.17;109267;1244;73087;-83
2023/03/04 13:02:29;;;;;;;12.40;7.70;;;;;;;18.21;21.98;100256.96;109195;1244;61932;-81
2023/03/04 13:05:31;;;;;;;11.80;7.00;;;;;;;18.32;22.72;100255.32;109306;1244;60029;-82
2023/03/04 13:08:13;;;;;;;12.40;7.40;;;;;;;18.68;21.88;100248.73;109274;1244;73379;-77
2023/03/04 13:10:42;;;;;;;11.90;7.60;;;;;;;18.57;22.14;100241.60;109400;1245;60661;-79
2023/03/04 13:13:41;;;;;;;12.60;7.40;;;;;;;18.50;22.51;100230.09;109473;1244;61574;-80
2023/03/04 13:16:13;;;;;;;14.10;7.30;;;;;;;18.91;21.86;100231.36;109338;1244;63400;-82
2023/03/04 13:18:43;;;;;;;16.50;8.00;;;;;;;18.94;22.24;100225.58;109494;1244;72215;-77
2023/03/04 13:21:22;;;;;;;13.00;7.70;;;;;;;19.13;21.69;100219.49;109462;1244;60239;-80
2023/03/04 13:23:52;;;;;;;13.50;7.40;;;;;;;19.08;21.81;100218.17;109472;1245;63261;-80
2023/03/04 13:26:33;;;;;;;11.30;7.60;;;;;;;19.40;21.37;100206.39;109332;1244;61044;-85
2023/03/04 13:29:13;;;;;;;10.60;6.90;;;;;;;19.31;21.23;100200.97;109280;1244;57190;-82
2023/03/04 13:32:03;;;;;;;12.20;7.40;;;;;;;19.69;21.13;100196.35;109295;1244;73572;-79
2023/03/04 13:34:56;;;;;;;13.60;8.20;;;;;;;19.88;21.34;100200.04;109437;1244;62304;-80
2023/03/04 13:37:36;;;;;;;13.30;7.90;;;;;;;19.84;21.57;100192.55;109459;1248;60080;-79
2023/03/04 13:40:22;;;;;;;13.00;7.80;;;;;;;19.97;21.80;100187.85;109491;1245;73898;-77
2023/03/04 13:42:51;;;;;;;12.40;8.10;;;;;;;19.79;22.28;100184.20;109559;1245;61469;-77